createdAt,value
2022-10-21T00:00:56.520Z,4.86
2022-10-21T00:03:42.626Z,4.84
2022-10-21T00:06:29.446Z,4.81
2022-10-21T00:09:10.450Z,4.81
2022-10-21T00:11:42.014Z,4.83
2022-10-21T00:14:13.525Z,4.86
2022-10-21T00:16:55.305Z,4.87
2022-10-21T00:19:37.910Z,4.91
2022-10-21T00:22:20.231Z,4.94
2022-10-21T00:24:53.624Z,4.85
2022-10-21T00:27:27.602Z,4.81
2022-10-21T00:30:11.857Z,4.82
2022-10-21T00:32:52.394Z,4.81
2022-10-21T00:35:30.546Z,4.79
2022-10-21T00:38:00.842Z,4.75
2022-10-21T00:40:30.999Z,4.72
2022-10-21T00:43:18.930Z,4.72
2022-10-21T00:46:03.434Z,4.66
2022-10-21T00:49:05.118Z,4.62
2022-10-21T00:51:39.543Z,4.59
2022-10-21T00:54:18.767Z,4.59
2022-10-21T00:56:59.166Z,4.57
2022-10-21T00:59:37.776Z,4.56
2022-10-21T01:02:18.608Z,4.57
2022-10-21T01:04:53.502Z,4.58
2022-10-21T01:07:25.195Z,4.57
2022-10-21T01:10:00.033Z,4.53
2022-10-21T01:12:55.795Z,4.51
2022-10-21T01:15:42.374Z,4.46
2022-10-21T01:18:35.277Z,4.41
2022-10-21T01:21:25.578Z,4.37
2022-10-21T01:24:29.787Z,4.35
2022-10-21T01:27:44.195Z,4.29
2022-10-21T01:30:44.586Z,4.23
2022-10-21T01:33:38.757Z,4.21
2022-10-21T01:36:30.897Z,4.21
2022-10-21T01:39:35.645Z,4.21
2022-10-21T01:42:37.573Z,4.22
2022-10-21T01:45:46.558Z,4.22
2022-10-21T01:48:38.098Z,4.20
2022-10-21T01:54:24.467Z,4.19
2022-10-21T02:02:39.590Z,4.05
2022-10-21T02:05:20.384Z,4.06
2022-10-21T02:07:52.204Z,4.09
2022-10-21T02:16:43.142Z,4.14
2022-10-21T02:19:27.938Z,4.12
2022-10-21T02:22:05.031Z,4.14
2022-10-21T02:24:57.576Z,4.19
2022-10-21T02:27:27.264Z,4.24
2022-10-21T02:30:00.674Z,4.27
2022-10-21T02:32:36.480Z,4.31
2022-10-21T02:35:52.788Z,4.34
2022-10-21T02:38:43.017Z,4.35
2022-10-21T02:41:19.867Z,4.37
2022-10-21T02:44:09.739Z,4.39
2022-10-21T02:47:04.508Z,4.41
2022-10-21T02:49:36.037Z,4.41
2022-10-21T02:52:06.813Z,4.43
2022-10-21T02:54:48.184Z,4.46
2022-10-21T02:57:30.814Z,4.44
2022-10-21T03:00:12.043Z,4.40
2022-10-21T03:02:44.258Z,4.40
2022-10-21T03:05:28.017Z,4.39
2022-10-21T03:08:08.574Z,4.40
2022-10-21T03:10:40.362Z,4.40
2022-10-21T03:13:22.028Z,4.39
2022-10-21T03:15:51.940Z,4.36
2022-10-21T03:18:29.035Z,4.35
2022-10-21T03:21:05.813Z,4.34
2022-10-21T03:23:36.003Z,4.37
2022-10-21T03:26:14.237Z,4.39
2022-10-21T03:28:44.672Z,4.41
2022-10-21T03:31:18.042Z,4.42
2022-10-21T03:33:47.182Z,4.45
2022-10-21T03:36:21.033Z,4.47
2022-10-21T03:38:51.580Z,4.47
2022-10-21T03:41:22.919Z,4.49
2022-10-21T03:43:52.204Z,4.50
2022-10-21T03:46:30.095Z,4.52
2022-10-21T03:49:06.793Z,4.56
2022-10-21T03:51:42.778Z,4.59
2022-10-21T03:54:23.460Z,4.60
2022-10-21T03:56:54.977Z,4.62
2022-10-21T03:59:25.108Z,4.67
2022-10-21T04:02:02.926Z,4.71
2022-10-21T04:04:36.999Z,4.69
2022-10-21T04:07:08.687Z,4.72
2022-10-21T04:09:44.443Z,4.77
2022-10-21T04:12:13.692Z,4.79
2022-10-21T04:14:42.917Z,4.80
2022-10-21T04:17:13.183Z,4.85
2022-10-21T04:19:42.633Z,4.91
2022-10-21T04:22:13.663Z,4.95
2022-10-21T04:24:42.957Z,5.00
2022-10-21T04:27:12.181Z,5.05
2022-10-21T04:29:41.305Z,5.07
2022-10-21T04:32:10.607Z,5.10
2022-10-21T04:34:39.551Z,5.15
2022-10-21T04:37:08.420Z,5.18
2022-10-21T04:39:39.727Z,5.23
2022-10-21T04:42:09.010Z,5.25
2022-10-21T04:44:42.192Z,5.26
2022-10-21T04:47:15.769Z,5.26
2022-10-21T04:49:45.027Z,5.20
2022-10-21T04:52:14.298Z,5.25
2022-10-21T04:54:44.436Z,5.30
2022-10-21T04:57:14.443Z,5.32
2022-10-21T04:59:46.478Z,5.33
2022-10-21T05:02:22.952Z,5.35
2022-10-21T05:05:00.146Z,5.36
2022-10-21T05:07:45.245Z,5.36
2022-10-21T05:10:24.048Z,5.38
2022-10-21T05:12:58.133Z,5.38
2022-10-21T05:15:29.921Z,5.40
2022-10-21T05:18:01.776Z,5.42
2022-10-21T05:20:35.243Z,5.44
2022-10-21T05:23:04.281Z,5.45
2022-10-21T05:25:36.333Z,5.47
2022-10-21T05:28:10.897Z,5.50
2022-10-21T05:33:28.957Z,5.54
2022-10-21T05:36:05.733Z,5.55
2022-10-21T05:38:35.660Z,5.57
2022-10-21T05:41:05.321Z,5.60
2022-10-21T05:43:34.636Z,5.62
2022-10-21T05:46:05.848Z,5.64
2022-10-21T05:48:36.594Z,5.65
2022-10-21T05:51:08.869Z,5.69
2022-10-21T05:53:40.339Z,5.70
2022-10-21T05:56:13.155Z,5.75
2022-10-21T05:58:52.329Z,5.78
2022-10-21T06:01:42.319Z,5.81
2022-10-21T06:04:15.461Z,5.87
2022-10-21T06:07:03.408Z,5.94
2022-10-21T06:09:39.971Z,6.01
2022-10-21T06:12:14.369Z,6.07
2022-10-21T06:14:43.535Z,6.12
2022-10-21T06:17:14.808Z,6.19
2022-10-21T06:19:58.525Z,6.24
2022-10-21T06:22:55.349Z,6.30
2022-10-21T06:29:51.996Z,6.39
2022-10-21T06:33:07.542Z,6.48
2022-10-21T06:57:28.835Z,7.37
2022-10-21T07:01:33.487Z,7.48
2022-10-21T07:04:15.392Z,7.61
2022-10-21T07:07:21.441Z,7.75
2022-10-21T07:20:21.096Z,8.47
2022-10-21T07:26:43.339Z,8.81
2022-10-21T07:40:53.601Z,9.25
2022-10-21T07:43:49.761Z,9.28
2022-10-21T07:47:01.379Z,9.28
2022-10-21T07:50:10.063Z,9.32
2022-10-21T07:53:19.586Z,9.40
2022-10-21T07:57:57.104Z,9.42
2022-10-21T07:59:17.798Z,9.38
2022-10-21T08:02:16.903Z,9.35
2022-10-21T08:05:29.117Z,9.32
2022-10-21T08:08:14.556Z,9.30
2022-10-21T08:11:46.353Z,9.30
2022-10-21T08:14:39.155Z,9.27
2022-10-21T08:17:49.394Z,9.27
2022-10-21T08:20:48.391Z,9.33
2022-10-21T08:23:26.809Z,9.38
2022-10-21T08:26:45.887Z,9.41
2022-10-21T08:30:03.302Z,9.41
2022-10-21T08:33:53.936Z,9.45
2022-10-21T08:54:07.954Z,9.75
2022-10-21T09:22:44.112Z,10.14
2022-10-21T09:26:19.737Z,10.21
2022-10-21T09:29:57.064Z,10.34
2022-10-21T09:33:05.804Z,10.49
2022-10-21T09:36:44.020Z,10.63
2022-10-21T09:40:09.201Z,10.70
2022-10-21T09:42:47.851Z,10.79
2022-10-21T09:45:49.810Z,10.87
2022-10-21T09:49:16.382Z,10.93
2022-10-21T09:51:42.623Z,11.00
2022-10-21T09:54:22.941Z,11.14
2022-10-21T09:57:44.995Z,11.31
2022-10-21T10:00:18.976Z,11.46
2022-10-21T10:02:49.726Z,11.63
2022-10-21T10:05:35.485Z,11.82
2022-10-21T10:08:41.355Z,11.99
2022-10-21T10:11:10.256Z,12.14
2022-10-21T10:14:12.476Z,12.25
2022-10-21T10:16:58.053Z,12.27
2022-10-21T10:20:58.511Z,12.26
2022-10-21T10:24:21.092Z,12.22
2022-10-21T10:27:47.694Z,12.29
2022-10-21T10:30:32.760Z,12.44
2022-10-21T10:33:25.535Z,12.60
2022-10-21T10:36:26.818Z,12.65
2022-10-21T10:39:26.568Z,12.72
2022-10-21T10:46:22.890Z,13.33
2022-10-21T10:48:59.774Z,13.59
2022-10-21T10:51:43.170Z,13.91
2022-10-21T10:54:45.838Z,14.09
2022-10-21T10:57:58.512Z,14.08
2022-10-21T11:00:50.229Z,13.93
2022-10-21T11:04:17.045Z,13.78
2022-10-21T11:07:01.168Z,13.65
2022-10-21T11:10:04.554Z,13.57
2022-10-21T11:13:01.932Z,13.51
2022-10-21T11:16:21.196Z,13.54
2022-10-21T11:19:14.447Z,13.52
2022-10-21T11:22:42.479Z,13.56
2022-10-21T11:25:36.197Z,13.62
2022-10-21T11:28:39.819Z,13.65
2022-10-21T11:31:53.949Z,13.66
2022-10-21T11:35:57.604Z,13.72
2022-10-21T11:39:21.546Z,13.78
2022-10-21T11:42:52.938Z,13.86
2022-10-21T11:45:47.582Z,13.92
2022-10-21T11:48:39.759Z,13.93
2022-10-21T11:51:31.076Z,13.92
2022-10-21T11:54:17.915Z,14.00
2022-10-21T11:57:37.381Z,14.05
2022-10-21T12:00:48.975Z,14.03
2022-10-21T12:03:51.269Z,14.03
2022-10-21T12:07:00.039Z,13.99
2022-10-21T12:10:06.430Z,13.95
2022-10-21T12:12:49.183Z,13.90
2022-10-21T12:15:35.943Z,13.92
2022-10-21T12:18:07.461Z,13.92
2022-10-21T12:20:51.651Z,13.93
2022-10-21T12:23:29.264Z,13.98
2022-10-21T12:26:27.053Z,13.98
2022-10-21T12:29:19.652Z,13.98
2022-10-21T12:31:56.413Z,14.05
2022-10-21T12:34:37.065Z,14.09
2022-10-21T12:37:56.921Z,14.07
2022-10-21T12:40:40.228Z,14.01
2022-10-21T12:43:28.590Z,14.01
2022-10-21T12:46:11.349Z,14.09
2022-10-21T12:49:03.664Z,14.14
2022-10-21T12:52:19.231Z,14.09
2022-10-21T12:55:12.781Z,14.04
2022-10-21T12:58:37.730Z,14.05
2022-10-21T13:05:12.951Z,14.04
2022-10-21T13:08:28.786Z,14.07
2022-10-21T13:11:08.790Z,13.98
2022-10-21T13:13:51.847Z,13.94
2022-10-21T13:16:50.561Z,13.87
2022-10-21T13:19:48.102Z,13.87
2022-10-21T13:22:45.379Z,13.84
2022-10-21T13:25:43.975Z,13.79
2022-10-21T13:28:28.968Z,13.79
2022-10-21T13:31:11.071Z,13.81
2022-10-21T13:33:59.887Z,13.84
2022-10-21T13:36:43.527Z,13.88
2022-10-21T13:39:33.554Z,13.90
2022-10-21T13:42:11.575Z,13.87
2022-10-21T13:45:21.584Z,13.86
2022-10-21T13:48:24.777Z,13.87
2022-10-21T13:51:16.789Z,13.86
2022-10-21T13:53:47.731Z,13.88
2022-10-21T13:56:31.001Z,13.87
2022-10-21T13:59:03.432Z,13.87
2022-10-21T14:01:53.664Z,13.90
2022-10-21T14:04:35.070Z,13.94
2022-10-21T14:07:16.628Z,14.01
2022-10-21T14:09:56.085Z,14.06
2022-10-21T14:12:36.070Z,14.08
2022-10-21T14:16:58.533Z,14.08
2022-10-21T14:20:35.394Z,13.99
2022-10-21T14:23:30.992Z,13.97
2022-10-21T14:26:15.073Z,13.99
2022-10-21T14:28:58.110Z,14.00
2022-10-21T14:31:28.561Z,14.02
2022-10-21T14:36:08.901Z,14.04
2022-10-21T14:37:25.620Z,14.07
2022-10-21T14:40:34.389Z,14.11
2022-10-21T14:43:13.492Z,14.15
2022-10-21T14:45:58.224Z,14.16
2022-10-21T14:48:58.717Z,14.14
2022-10-21T14:51:46.039Z,14.09
2022-10-21T14:54:47.842Z,14.05
2022-10-21T14:57:49.001Z,14.00
2022-10-21T15:01:14.495Z,13.93
2022-10-21T15:03:57.939Z,13.80
2022-10-21T15:07:04.399Z,13.73
2022-10-21T15:10:08.418Z,13.71
2022-10-21T15:12:50.008Z,13.69
2022-10-21T15:15:41.118Z,13.70
2022-10-21T15:18:55.993Z,13.68
2022-10-21T15:22:07.842Z,13.62
2022-10-21T15:27:42.195Z,13.51
2022-10-21T15:30:37.199Z,13.48
2022-10-21T15:33:12.375Z,13.48
2022-10-21T15:35:45.882Z,13.50
2022-10-21T15:38:16.121Z,13.50
2022-10-21T15:40:58.473Z,13.49
2022-10-21T15:43:42.174Z,13.47
2022-10-21T15:46:30.369Z,13.43
2022-10-21T15:49:17.455Z,13.41
2022-10-21T15:52:06.969Z,13.37
2022-10-21T15:54:51.631Z,13.32
2022-10-21T15:57:37.385Z,13.26
2022-10-21T16:00:24.047Z,13.21
2022-10-21T16:03:03.910Z,13.18
2022-10-21T16:05:45.058Z,13.18
2022-10-21T16:08:24.449Z,13.17
2022-10-21T16:10:59.407Z,13.16
2022-10-21T16:13:30.588Z,13.16
2022-10-21T16:16:05.624Z,13.17
2022-10-21T16:18:48.098Z,13.13
2022-10-21T16:21:33.842Z,13.12
2022-10-21T16:24:24.591Z,13.07
2022-10-21T16:27:08.667Z,13.01
2022-10-21T16:29:43.673Z,12.96
2022-10-21T16:32:17.181Z,12.93
2022-10-21T16:34:55.027Z,12.89
2022-10-21T16:37:29.160Z,12.85
2022-10-21T16:40:03.179Z,12.82
2022-10-21T16:42:38.080Z,12.83
2022-10-21T16:45:14.241Z,12.84
2022-10-21T16:47:49.464Z,12.82
2022-10-21T16:50:41.552Z,12.80
2022-10-21T16:53:19.141Z,12.75
2022-10-21T16:55:53.324Z,12.72
2022-10-21T16:58:44.430Z,12.66
2022-10-21T17:01:24.017Z,12.64
2022-10-21T17:03:54.488Z,12.63
2022-10-21T17:06:31.110Z,12.64
2022-10-21T17:09:01.975Z,12.64
2022-10-21T17:11:41.400Z,12.63
2022-10-21T17:14:24.529Z,12.61
2022-10-21T17:16:55.237Z,12.59
2022-10-21T17:19:39.865Z,12.58
2022-10-21T17:22:27.695Z,12.56
2022-10-21T17:25:06.628Z,12.55
2022-10-21T17:27:40.932Z,12.54
2022-10-21T17:30:25.618Z,12.52
2022-10-21T17:33:05.133Z,12.52
2022-10-21T17:35:38.641Z,12.53
2022-10-21T17:38:17.042Z,12.53
2022-10-21T17:41:08.731Z,12.50
2022-10-21T17:44:11.339Z,12.44
2022-10-21T17:46:55.488Z,12.41
2022-10-21T17:49:56.403Z,12.38
2022-10-21T17:52:29.954Z,12.37
2022-10-21T17:55:12.173Z,12.38
2022-10-21T17:58:05.137Z,12.39
2022-10-21T18:00:48.608Z,12.36
2022-10-21T18:03:37.936Z,12.34
2022-10-21T18:06:21.957Z,12.29
2022-10-21T18:09:11.414Z,12.27
2022-10-21T18:12:03.385Z,12.26
2022-10-21T18:14:50.387Z,12.27
2022-10-21T18:17:26.724Z,12.30
2022-10-21T18:20:12.675Z,12.29
2022-10-21T18:23:00.377Z,12.26
2022-10-21T18:29:24.486Z,12.25
2022-10-21T18:32:26.284Z,12.29
2022-10-21T18:35:17.483Z,12.30
2022-10-21T18:37:59.836Z,12.30
2022-10-21T18:40:31.443Z,12.32
2022-10-21T18:43:15.016Z,12.34
2022-10-21T18:45:58.311Z,12.38
2022-10-21T18:57:33.390Z,12.37
2022-10-21T19:00:04.674Z,12.40
2022-10-21T19:02:34.022Z,12.42
2022-10-21T19:05:29.109Z,12.44
2022-10-21T19:07:59.441Z,12.44
2022-10-21T19:10:32.726Z,12.45
2022-10-21T19:16:12.522Z,12.45
2022-10-21T19:18:55.947Z,12.41
2022-10-21T19:21:41.530Z,12.43
2022-10-21T19:24:37.434Z,12.43
2022-10-21T19:27:08.986Z,12.43
2022-10-21T19:30:10.496Z,12.42
2022-10-21T19:32:42.385Z,12.38
2022-10-21T19:35:16.411Z,12.39
2022-10-21T19:37:48.892Z,12.36
2022-10-21T19:40:29.591Z,12.37
2022-10-21T19:43:13.724Z,12.36
2022-10-21T19:45:46.496Z,12.35
2022-10-21T19:48:21.188Z,12.36
2022-10-21T19:50:59.428Z,12.38
2022-10-21T19:53:38.770Z,12.37
2022-10-21T19:56:23.893Z,12.37
2022-10-21T20:01:51.922Z,12.36
2022-10-21T20:04:30.359Z,12.38
2022-10-21T20:07:04.533Z,12.39
2022-10-21T20:09:37.996Z,12.38
2022-10-21T20:12:22.800Z,12.37
2022-10-21T20:15:07.484Z,12.38
2022-10-21T20:17:57.639Z,12.36
2022-10-21T20:23:49.787Z,12.36
2022-10-21T20:26:50.839Z,12.36
2022-10-21T20:29:27.665Z,12.36
2022-10-21T20:32:11.839Z,12.36
2022-10-21T20:35:10.941Z,12.30
2022-10-21T20:37:52.882Z,12.26
2022-10-21T20:40:46.485Z,12.25
2022-10-21T20:43:35.003Z,12.24
2022-10-21T20:46:14.239Z,12.26
2022-10-21T20:49:38.074Z,12.27
2022-10-21T20:52:41.607Z,12.17
2022-10-21T20:55:18.972Z,12.22
2022-10-21T20:58:26.879Z,12.27
2022-10-21T21:01:19.596Z,12.28
2022-10-21T21:07:37.331Z,12.29
2022-10-21T21:10:52.597Z,12.29
2022-10-21T21:13:41.969Z,12.29
2022-10-21T21:16:28.515Z,12.27
2022-10-21T21:19:31.477Z,12.30
2022-10-21T21:22:14.082Z,12.30
2022-10-21T21:24:51.120Z,12.29
2022-10-21T21:27:36.093Z,12.28
2022-10-21T21:30:19.597Z,12.31
2022-10-21T21:33:01.761Z,12.31
2022-10-21T21:36:01.177Z,12.31
2022-10-21T21:38:44.955Z,12.29
2022-10-21T21:41:19.693Z,12.28
2022-10-21T21:44:01.173Z,12.27
2022-10-21T21:46:45.173Z,12.25
2022-10-21T21:49:28.644Z,12.24
2022-10-21T21:52:13.027Z,12.22
2022-10-21T21:55:10.821Z,12.17
2022-10-21T21:58:12.670Z,12.08
2022-10-21T22:00:58.804Z,12.05
2022-10-21T22:03:55.770Z,12.05
2022-10-21T22:06:41.707Z,12.08
2022-10-21T22:09:37.372Z,12.12
2022-10-21T22:12:17.835Z,12.14
2022-10-21T22:15:43.227Z,12.02
2022-10-21T22:18:27.908Z,11.94
2022-10-21T22:21:20.251Z,11.88
2022-10-21T22:24:12.734Z,11.79
2022-10-21T22:27:02.887Z,11.72
2022-10-21T22:30:00.324Z,11.72
2022-10-21T22:32:47.982Z,11.74
2022-10-21T22:39:43.322Z,11.79
2022-10-21T22:45:50.453Z,11.83
2022-10-21T22:59:52.046Z,11.90
2022-10-21T23:04:21.709Z,11.92
2022-10-21T23:06:12.575Z,11.90
2022-10-21T23:09:01.372Z,11.89
2022-10-21T23:11:55.478Z,11.92
2022-10-21T23:15:16.902Z,11.92
2022-10-21T23:18:21.098Z,11.96
2022-10-21T23:21:10.159Z,11.96
2022-10-21T23:24:01.844Z,11.96
2022-10-21T23:27:31.641Z,11.98
2022-10-21T23:29:52.602Z,11.98
2022-10-21T23:32:37.518Z,12.01
2022-10-21T23:35:27.912Z,12.02
2022-10-21T23:38:01.649Z,12.01
2022-10-21T23:40:31.826Z,11.98
2022-10-21T23:43:06.309Z,11.94
2022-10-21T23:46:09.902Z,11.84
2022-10-21T23:48:52.001Z,11.78
2022-10-21T23:51:40.420Z,11.75
2022-10-21T23:57:34.440Z,11.63
